Skip Navigation Links Skip Navigation Links

Current Weather

Jake Arner Memorial, Lehighton, Penn.

For information only: do not use for flight planning or navigation.
Latest weather
Observation time Monday, June 21, 2021 10:15 PM EDT
Local time Monday, June 21, 2021 10:28 PM EDT
Flight conditions Marginal Visual Meteorological Conditions
Winds
Wind speed calm
Visibility 4 mi.
Present weather mist
Sky condition
Ceiling unlimited
Sky clear
Temperature 70°F
Dewpoint 70°F
Altimeter 29.67 in.Hg
Derived measurements
Relative humidity 100%
Density altitude 1859 ft.
Remarks
Fully automated report.
Automated weather observing station with precipitation discriminator.
METAR K22N 220215Z AUTO 00000KT 4SM BR CLR 21/21 A2967 RMK AO2

Settings

Location code

InnerDrive.Weather 4.0.6770.0 Release CLR 4.0.30319.42000
Copyright ©2018 Inner Drive Technology. All rights reserved. Portions Copyright ©1986-2018 David Braverman.

Find weather

Site navigation


Skip Navigation Links

Place info

Page info

PayPal - The safer, easier way to pay online!

Return home.

Copyright ©2021 Inner Drive Technology. Purveyors of fine, hand-crafted computer software. Page printed 2021-06-22T02:28:59 UTC.